sensor_id;sensor_type;location;lat;lon;timestamp;P1;durP1;ratioP1;P2;durP2;ratioP2
1613;SDS011;800;48.824;9.346;2023-07-09T00:00:46;4.17;;;3.77;;
1613;SDS011;800;48.824;9.346;2023-07-09T00:03:13;5.50;;;4.27;;
1613;SDS011;800;48.824;9.346;2023-07-09T00:05:39;4.90;;;4.17;;
1613;SDS011;800;48.824;9.346;2023-07-09T00:08:05;4.60;;;4.20;;
1613;SDS011;800;48.824;9.346;2023-07-09T00:10:34;5.20;;;3.60;;
1613;SDS011;800;48.824;9.346;2023-07-09T00:13:00;5.20;;;4.20;;
1613;SDS011;800;48.824;9.346;2023-07-09T00:15:26;5.13;;;4.50;;
1613;SDS011;800;48.824;9.346;2023-07-09T00:17:52;5.50;;;5.00;;
1613;SDS011;800;48.824;9.346;2023-07-09T00:20:18;5.00;;;4.27;;
1613;SDS011;800;48.824;9.346;2023-07-09T00:22:44;5.73;;;4.10;;
1613;SDS011;800;48.824;9.346;2023-07-09T00:25:13;4.80;;;4.30;;
1613;SDS011;800;48.824;9.346;2023-07-09T00:27:41;4.70;;;4.33;;
1613;SDS011;800;48.824;9.346;2023-07-09T00:30:19;5.13;;;4.63;;
1613;SDS011;800;48.824;9.346;2023-07-09T00:32:46;5.37;;;4.87;;
1613;SDS011;800;48.824;9.346;2023-07-09T00:35:17;6.90;;;4.83;;
1613;SDS011;800;48.824;9.346;2023-07-09T00:37:43;4.77;;;4.37;;
1613;SDS011;800;48.824;9.346;2023-07-09T00:40:12;7.20;;;5.17;;
1613;SDS011;800;48.824;9.346;2023-07-09T00:42:47;5.10;;;4.30;;
1613;SDS011;800;48.824;9.346;2023-07-09T00:45:17;4.97;;;4.10;;
1613;SDS011;800;48.824;9.346;2023-07-09T00:47:57;4.23;;;3.90;;
1613;SDS011;800;48.824;9.346;2023-07-09T00:50:29;5.10;;;3.93;;
1613;SDS011;800;48.824;9.346;2023-07-09T00:53:21;4.40;;;3.70;;
1613;SDS011;800;48.824;9.346;2023-07-09T00:55:52;3.70;;;3.37;;
1613;SDS011;800;48.824;9.346;2023-07-09T00:58:24;5.33;;;4.00;;
1613;SDS011;800;48.824;9.346;2023-07-09T01:00:54;5.27;;;4.50;;
1613;SDS011;800;48.824;9.346;2023-07-09T01:03:34;4.23;;;3.67;;
1613;SDS011;800;48.824;9.346;2023-07-09T01:06:06;3.80;;;3.40;;
1613;SDS011;800;48.824;9.346;2023-07-09T01:08:33;4.20;;;3.80;;
1613;SDS011;800;48.824;9.346;2023-07-09T01:11:01;5.10;;;3.93;;
1613;SDS011;800;48.824;9.346;2023-07-09T01:13:27;4.73;;;4.33;;
1613;SDS011;800;48.824;9.346;2023-07-09T01:15:54;7.40;;;4.40;;
1613;SDS011;800;48.824;9.346;2023-07-09T01:18:20;5.40;;;4.00;;
1613;SDS011;800;48.824;9.346;2023-07-09T01:20:46;4.37;;;3.97;;
1613;SDS011;800;48.824;9.346;2023-07-09T01:23:12;5.17;;;3.90;;
1613;SDS011;800;48.824;9.346;2023-07-09T01:25:41;4.50;;;3.70;;
1613;SDS011;800;48.824;9.346;2023-07-09T01:28:09;4.87;;;4.07;;
1613;SDS011;800;48.824;9.346;2023-07-09T01:30:36;4.33;;;3.87;;
1613;SDS011;800;48.824;9.346;2023-07-09T01:33:03;5.23;;;4.07;;
1613;SDS011;800;48.824;9.346;2023-07-09T01:35:32;5.33;;;3.80;;
1613;SDS011;800;48.824;9.346;2023-07-09T01:37:59;4.20;;;3.50;;
1613;SDS011;800;48.824;9.346;2023-07-09T01:40:26;5.03;;;3.93;;
1613;SDS011;800;48.824;9.346;2023-07-09T01:42:53;4.83;;;4.13;;
1613;SDS011;800;48.824;9.346;2023-07-09T01:45:20;4.20;;;3.77;;
1613;SDS011;800;48.824;9.346;2023-07-09T01:47:46;5.00;;;3.63;;
1613;SDS011;800;48.824;9.346;2023-07-09T01:50:12;5.90;;;3.97;;
1613;SDS011;800;48.824;9.346;2023-07-09T01:52:38;4.27;;;3.90;;
1613;SDS011;800;48.824;9.346;2023-07-09T01:55:08;4.43;;;4.03;;
1613;SDS011;800;48.824;9.346;2023-07-09T01:57:35;4.30;;;3.60;;
1613;SDS011;800;48.824;9.346;2023-07-09T02:00:05;5.07;;;3.93;;
1613;SDS011;800;48.824;9.346;2023-07-09T02:02:35;4.20;;;3.50;;
1613;SDS011;800;48.824;9.346;2023-07-09T02:05:04;4.10;;;3.67;;
1613;SDS011;800;48.824;9.346;2023-07-09T02:07:30;4.50;;;4.13;;
1613;SDS011;800;48.824;9.346;2023-07-09T02:09:57;5.50;;;3.73;;
1613;SDS011;800;48.824;9.346;2023-07-09T02:12:23;5.40;;;4.00;;
1613;SDS011;800;48.824;9.346;2023-07-09T02:14:49;5.90;;;3.97;;
1613;SDS011;800;48.824;9.346;2023-07-09T02:17:15;3.93;;;3.50;;
1613;SDS011;800;48.824;9.346;2023-07-09T02:19:41;4.07;;;3.50;;
1613;SDS011;800;48.824;9.346;2023-07-09T02:22:07;3.90;;;3.50;;
1613;SDS011;800;48.824;9.346;2023-07-09T02:24:33;4.10;;;3.70;;
1613;SDS011;800;48.824;9.346;2023-07-09T02:27:00;4.23;;;3.67;;
1613;SDS011;800;48.824;9.346;2023-07-09T02:29:28;6.00;;;3.60;;
1613;SDS011;800;48.824;9.346;2023-07-09T02:31:55;5.70;;;4.83;;
1613;SDS011;800;48.824;9.346;2023-07-09T02:34:21;8.37;;;4.10;;
1613;SDS011;800;48.824;9.346;2023-07-09T02:36:50;4.13;;;3.73;;
1613;SDS011;800;48.824;9.346;2023-07-09T02:39:20;4.43;;;3.63;;
1613;SDS011;800;48.824;9.346;2023-07-09T02:41:47;4.30;;;3.90;;
1613;SDS011;800;48.824;9.346;2023-07-09T02:44:13;4.43;;;4.03;;
1613;SDS011;800;48.824;9.346;2023-07-09T02:46:39;6.00;;;4.27;;
1613;SDS011;800;48.824;9.346;2023-07-09T02:49:05;6.77;;;4.20;;
1613;SDS011;800;48.824;9.346;2023-07-09T02:51:31;4.00;;;3.60;;
1613;SDS011;800;48.824;9.346;2023-07-09T02:53:59;5.53;;;3.80;;
1613;SDS011;800;48.824;9.346;2023-07-09T02:56:26;4.43;;;3.97;;
1613;SDS011;800;48.824;9.346;2023-07-09T02:58:51;4.40;;;4.00;;
1613;SDS011;800;48.824;9.346;2023-07-09T03:01:17;6.90;;;4.20;;
1613;SDS011;800;48.824;9.346;2023-07-09T03:03:46;4.33;;;3.30;;
1613;SDS011;800;48.824;9.346;2023-07-09T03:06:12;4.53;;;4.13;;
1613;SDS011;800;48.824;9.346;2023-07-09T03:08:38;7.13;;;3.87;;
1613;SDS011;800;48.824;9.346;2023-07-09T03:11:10;8.80;;;4.13;;
1613;SDS011;800;48.824;9.346;2023-07-09T03:13:36;4.43;;;3.50;;
1613;SDS011;800;48.824;9.346;2023-07-09T03:16:02;4.00;;;3.60;;
1613;SDS011;800;48.824;9.346;2023-07-09T03:18:27;4.07;;;3.63;;
1613;SDS011;800;48.824;9.346;2023-07-09T03:20:53;4.83;;;3.70;;
1613;SDS011;800;48.824;9.346;2023-07-09T03:23:19;4.20;;;3.80;;
1613;SDS011;800;48.824;9.346;2023-07-09T03:25:44;4.70;;;4.30;;
1613;SDS011;800;48.824;9.346;2023-07-09T03:28:10;4.80;;;4.00;;
1613;SDS011;800;48.824;9.346;2023-07-09T03:30:40;5.27;;;3.97;;
1613;SDS011;800;48.824;9.346;2023-07-09T03:33:06;5.30;;;4.30;;
1613;SDS011;800;48.824;9.346;2023-07-09T03:35:32;6.13;;;3.80;;
1613;SDS011;800;48.824;9.346;2023-07-09T03:37:59;4.33;;;3.60;;
1613;SDS011;800;48.824;9.346;2023-07-09T03:40:25;4.93;;;4.43;;
1613;SDS011;800;48.824;9.346;2023-07-09T03:42:50;6.67;;;4.20;;
1613;SDS011;800;48.824;9.346;2023-07-09T03:45:16;5.60;;;4.40;;
1613;SDS011;800;48.824;9.346;2023-07-09T03:47:42;5.33;;;3.97;;
1613;SDS011;800;48.824;9.346;2023-07-09T03:50:08;3.67;;;3.37;;
1613;SDS011;800;48.824;9.346;2023-07-09T03:52:35;12.53;;;4.33;;
1613;SDS011;800;48.824;9.346;2023-07-09T03:55:00;4.20;;;3.80;;
1613;SDS011;800;48.824;9.346;2023-07-09T03:57:29;6.50;;;4.33;;
1613;SDS011;800;48.824;9.346;2023-07-09T03:59:55;4.13;;;3.73;;
1613;SDS011;800;48.824;9.346;2023-07-09T04:02:20;4.93;;;4.37;;
1613;SDS011;800;48.824;9.346;2023-07-09T04:04:46;4.23;;;3.77;;
1613;SDS011;800;48.824;9.346;2023-07-09T04:07:11;4.37;;;3.97;;
1613;SDS011;800;48.824;9.346;2023-07-09T04:09:37;4.20;;;3.80;;
1613;SDS011;800;48.824;9.346;2023-07-09T04:12:03;5.23;;;4.13;;
1613;SDS011;800;48.824;9.346;2023-07-09T04:14:29;4.13;;;3.53;;
1613;SDS011;800;48.824;9.346;2023-07-09T04:16:55;6.47;;;5.00;;
1613;SDS011;800;48.824;9.346;2023-07-09T04:19:20;4.40;;;4.00;;
1613;SDS011;800;48.824;9.346;2023-07-09T04:21:46;4.40;;;4.10;;
1613;SDS011;800;48.824;9.346;2023-07-09T04:24:11;7.17;;;4.27;;
1613;SDS011;800;48.824;9.346;2023-07-09T04:26:38;5.00;;;4.30;;
1613;SDS011;800;48.824;9.346;2023-07-09T04:29:05;3.90;;;3.43;;
1613;SDS011;800;48.824;9.346;2023-07-09T04:31:31;4.33;;;3.80;;
1613;SDS011;800;48.824;9.346;2023-07-09T04:33:56;4.43;;;4.03;;
1613;SDS011;800;48.824;9.346;2023-07-09T04:36:22;6.40;;;4.57;;
1613;SDS011;800;48.824;9.346;2023-07-09T04:38:48;4.80;;;4.27;;
1613;SDS011;800;48.824;9.346;2023-07-09T04:41:13;5.03;;;4.53;;
1613;SDS011;800;48.824;9.346;2023-07-09T04:43:39;5.23;;;4.30;;
1613;SDS011;800;48.824;9.346;2023-07-09T04:46:05;4.17;;;3.80;;
1613;SDS011;800;48.824;9.346;2023-07-09T04:48:30;4.10;;;3.70;;
1613;SDS011;800;48.824;9.346;2023-07-09T04:50:56;4.60;;;3.70;;
1613;SDS011;800;48.824;9.346;2023-07-09T04:53:21;7.13;;;4.00;;
1613;SDS011;800;48.824;9.346;2023-07-09T04:55:49;4.20;;;3.80;;
1613;SDS011;800;48.824;9.346;2023-07-09T04:58:14;4.30;;;3.90;;
1613;SDS011;800;48.824;9.346;2023-07-09T05:00:41;6.13;;;4.13;;
1613;SDS011;800;48.824;9.346;2023-07-09T05:03:07;4.90;;;4.43;;
1613;SDS011;800;48.824;9.346;2023-07-09T05:05:33;5.97;;;3.60;;
1613;SDS011;800;48.824;9.346;2023-07-09T05:07:59;6.43;;;4.20;;
1613;SDS011;800;48.824;9.346;2023-07-09T05:10:24;6.53;;;3.90;;
1613;SDS011;800;48.824;9.346;2023-07-09T05:12:50;7.90;;;4.63;;
1613;SDS011;800;48.824;9.346;2023-07-09T05:15:18;4.20;;;3.80;;
1613;SDS011;800;48.824;9.346;2023-07-09T05:17:44;4.67;;;4.30;;
1613;SDS011;800;48.824;9.346;2023-07-09T05:20:11;6.13;;;4.37;;
1613;SDS011;800;48.824;9.346;2023-07-09T05:22:37;4.33;;;4.00;;
1613;SDS011;800;48.824;9.346;2023-07-09T05:25:03;6.20;;;4.47;;
1613;SDS011;800;48.824;9.346;2023-07-09T05:27:28;7.43;;;4.60;;
1613;SDS011;800;48.824;9.346;2023-07-09T05:29:54;4.47;;;4.07;;
1613;SDS011;800;48.824;9.346;2023-07-09T05:32:20;5.20;;;4.70;;
1613;SDS011;800;48.824;9.346;2023-07-09T05:34:45;4.33;;;3.80;;
1613;SDS011;800;48.824;9.346;2023-07-09T05:37:11;4.77;;;4.20;;
1613;SDS011;800;48.824;9.346;2023-07-09T05:39:36;5.10;;;4.60;;
1613;SDS011;800;48.824;9.346;2023-07-09T05:42:02;5.10;;;4.40;;
1613;SDS011;800;48.824;9.346;2023-07-09T05:44:28;5.30;;;4.80;;
1613;SDS011;800;48.824;9.346;2023-07-09T05:46:53;5.03;;;4.53;;
1613;SDS011;800;48.824;9.346;2023-07-09T05:49:19;4.90;;;4.00;;
1613;SDS011;800;48.824;9.346;2023-07-09T05:51:44;4.57;;;4.17;;
1613;SDS011;800;48.824;9.346;2023-07-09T05:54:10;5.03;;;4.50;;
1613;SDS011;800;48.824;9.346;2023-07-09T05:56:36;4.87;;;4.37;;
1613;SDS011;800;48.824;9.346;2023-07-09T05:59:01;6.90;;;3.93;;
1613;SDS011;800;48.824;9.346;2023-07-09T06:01:27;4.73;;;4.33;;
1613;SDS011;800;48.824;9.346;2023-07-09T06:03:53;5.47;;;4.90;;
1613;SDS011;800;48.824;9.346;2023-07-09T06:06:19;4.80;;;4.40;;
1613;SDS011;800;48.824;9.346;2023-07-09T06:08:45;4.73;;;4.10;;
1613;SDS011;800;48.824;9.346;2023-07-09T06:11:11;6.10;;;4.97;;
1613;SDS011;800;48.824;9.346;2023-07-09T06:13:37;6.47;;;4.90;;
1613;SDS011;800;48.824;9.346;2023-07-09T06:16:03;7.60;;;4.27;;
1613;SDS011;800;48.824;9.346;2023-07-09T06:18:29;6.20;;;5.40;;
1613;SDS011;800;48.824;9.346;2023-07-09T06:20:56;5.13;;;4.63;;
1613;SDS011;800;48.824;9.346;2023-07-09T06:23:23;5.27;;;4.23;;
1613;SDS011;800;48.824;9.346;2023-07-09T06:25:49;6.10;;;4.67;;
1613;SDS011;800;48.824;9.346;2023-07-09T06:28:16;9.27;;;5.30;;
1613;SDS011;800;48.824;9.346;2023-07-09T06:30:44;6.10;;;5.03;;
1613;SDS011;800;48.824;9.346;2023-07-09T06:33:10;4.83;;;4.43;;
1613;SDS011;800;48.824;9.346;2023-07-09T06:35:37;7.33;;;4.37;;
1613;SDS011;800;48.824;9.346;2023-07-09T06:38:04;4.90;;;4.40;;
1613;SDS011;800;48.824;9.346;2023-07-09T06:40:30;4.50;;;4.10;;
1613;SDS011;800;48.824;9.346;2023-07-09T06:42:56;5.13;;;4.13;;
1613;SDS011;800;48.824;9.346;2023-07-09T06:45:23;6.57;;;5.00;;
1613;SDS011;800;48.824;9.346;2023-07-09T06:47:49;5.83;;;4.60;;
1613;SDS011;800;48.824;9.346;2023-07-09T06:50:14;7.37;;;4.80;;
1613;SDS011;800;48.824;9.346;2023-07-09T06:52:40;6.00;;;5.37;;
1613;SDS011;800;48.824;9.346;2023-07-09T06:55:06;5.53;;;5.03;;
1613;SDS011;800;48.824;9.346;2023-07-09T06:57:32;7.03;;;4.20;;
1613;SDS011;800;48.824;9.346;2023-07-09T06:59:58;5.20;;;4.70;;
1613;SDS011;800;48.824;9.346;2023-07-09T07:02:24;5.47;;;4.87;;
1613;SDS011;800;48.824;9.346;2023-07-09T07:04:49;7.03;;;4.30;;
1613;SDS011;800;48.824;9.346;2023-07-09T07:07:15;5.83;;;5.17;;
1613;SDS011;800;48.824;9.346;2023-07-09T07:09:40;5.80;;;4.30;;
1613;SDS011;800;48.824;9.346;2023-07-09T07:12:06;5.27;;;4.77;;
1613;SDS011;800;48.824;9.346;2023-07-09T07:14:32;5.00;;;4.50;;
1613;SDS011;800;48.824;9.346;2023-07-09T07:16:58;11.10;;;4.73;;
1613;SDS011;800;48.824;9.346;2023-07-09T07:19:23;4.60;;;3.73;;
1613;SDS011;800;48.824;9.346;2023-07-09T07:21:49;5.60;;;5.10;;
1613;SDS011;800;48.824;9.346;2023-07-09T07:24:14;5.30;;;4.70;;
1613;SDS011;800;48.824;9.346;2023-07-09T07:26:40;8.20;;;4.87;;
1613;SDS011;800;48.824;9.346;2023-07-09T07:29:06;4.87;;;4.47;;
1613;SDS011;800;48.824;9.346;2023-07-09T07:31:31;5.33;;;4.80;;
1613;SDS011;800;48.824;9.346;2023-07-09T07:33:57;5.50;;;5.00;;
1613;SDS011;800;48.824;9.346;2023-07-09T07:36:23;5.30;;;4.80;;
1613;SDS011;800;48.824;9.346;2023-07-09T07:38:48;5.20;;;4.70;;
1613;SDS011;800;48.824;9.346;2023-07-09T07:41:14;4.77;;;4.37;;
1613;SDS011;800;48.824;9.346;2023-07-09T07:43:39;6.80;;;4.93;;
1613;SDS011;800;48.824;9.346;2023-07-09T07:46:06;5.00;;;4.47;;
1613;SDS011;800;48.824;9.346;2023-07-09T07:48:32;8.33;;;5.30;;
1613;SDS011;800;48.824;9.346;2023-07-09T07:50:58;4.73;;;4.23;;
1613;SDS011;800;48.824;9.346;2023-07-09T07:53:26;5.07;;;4.60;;
1613;SDS011;800;48.824;9.346;2023-07-09T07:55:54;6.63;;;5.50;;
1613;SDS011;800;48.824;9.346;2023-07-09T07:58:21;4.67;;;4.27;;
1613;SDS011;800;48.824;9.346;2023-07-09T08:00:47;7.10;;;5.33;;
1613;SDS011;800;48.824;9.346;2023-07-09T08:03:12;5.73;;;5.20;;
1613;SDS011;800;48.824;9.346;2023-07-09T08:05:38;4.33;;;3.93;;
1613;SDS011;800;48.824;9.346;2023-07-09T08:08:04;5.67;;;4.83;;
1613;SDS011;800;48.824;9.346;2023-07-09T08:10:29;4.73;;;4.30;;
1613;SDS011;800;48.824;9.346;2023-07-09T08:12:55;5.00;;;4.60;;
1613;SDS011;800;48.824;9.346;2023-07-09T08:15:22;5.50;;;4.93;;
1613;SDS011;800;48.824;9.346;2023-07-09T08:17:52;6.00;;;4.93;;
1613;SDS011;800;48.824;9.346;2023-07-09T08:20:18;4.97;;;4.47;;
1613;SDS011;800;48.824;9.346;2023-07-09T08:22:43;5.10;;;4.70;;
1613;SDS011;800;48.824;9.346;2023-07-09T08:25:09;5.17;;;4.73;;
1613;SDS011;800;48.824;9.346;2023-07-09T08:27:35;6.50;;;4.97;;
1613;SDS011;800;48.824;9.346;2023-07-09T08:30:00;6.80;;;4.83;;
1613;SDS011;800;48.824;9.346;2023-07-09T08:32:26;8.13;;;5.10;;
1613;SDS011;800;48.824;9.346;2023-07-09T08:34:54;5.50;;;4.90;;
1613;SDS011;800;48.824;9.346;2023-07-09T08:37:19;5.27;;;4.57;;
1613;SDS011;800;48.824;9.346;2023-07-09T08:39:45;10.40;;;4.23;;
1613;SDS011;800;48.824;9.346;2023-07-09T08:42:11;4.50;;;4.10;;
1613;SDS011;800;48.824;9.346;2023-07-09T08:44:58;4.60;;;4.20;;
1613;SDS011;800;48.824;9.346;2023-07-09T08:50:43;5.13;;;4.63;;
1613;SDS011;800;48.824;9.346;2023-07-09T08:53:15;5.30;;;4.80;;
1613;SDS011;800;48.824;9.346;2023-07-09T08:55:57;7.10;;;4.30;;
1613;SDS011;800;48.824;9.346;2023-07-09T08:58:28;7.00;;;5.10;;
1613;SDS011;800;48.824;9.346;2023-07-09T09:00:56;4.90;;;4.43;;
1613;SDS011;800;48.824;9.346;2023-07-09T09:05:48;4.73;;;4.33;;
1613;SDS011;800;48.824;9.346;2023-07-09T09:11:09;6.00;;;4.53;;
1613;SDS011;800;48.824;9.346;2023-07-09T09:13:46;4.67;;;4.27;;
1613;SDS011;800;48.824;9.346;2023-07-09T09:16:35;5.10;;;4.70;;
1613;SDS011;800;48.824;9.346;2023-07-09T09:19:05;4.50;;;4.10;;
1613;SDS011;800;48.824;9.346;2023-07-09T09:21:46;5.40;;;4.90;;
1613;SDS011;800;48.824;9.346;2023-07-09T09:24:18;8.90;;;4.60;;
1613;SDS011;800;48.824;9.346;2023-07-09T09:26:50;5.97;;;4.80;;
1613;SDS011;800;48.824;9.346;2023-07-09T09:29:17;6.33;;;4.73;;
1613;SDS011;800;48.824;9.346;2023-07-09T09:31:44;4.87;;;4.40;;
1613;SDS011;800;48.824;9.346;2023-07-09T09:34:17;6.40;;;4.80;;
1613;SDS011;800;48.824;9.346;2023-07-09T09:36:48;8.33;;;4.50;;
1613;SDS011;800;48.824;9.346;2023-07-09T09:39:14;4.90;;;4.50;;
1613;SDS011;800;48.824;9.346;2023-07-09T09:41:41;4.13;;;3.80;;
1613;SDS011;800;48.824;9.346;2023-07-09T09:44:18;6.43;;;4.60;;
1613;SDS011;800;48.824;9.346;2023-07-09T09:46:50;4.93;;;4.40;;
1613;SDS011;800;48.824;9.346;2023-07-09T09:49:16;4.90;;;4.40;;
1613;SDS011;800;48.824;9.346;2023-07-09T09:51:43;5.70;;;4.10;;
1613;SDS011;800;48.824;9.346;2023-07-09T09:54:17;5.53;;;4.57;;
1613;SDS011;800;48.824;9.346;2023-07-09T09:56:49;5.13;;;4.23;;
1613;SDS011;800;48.824;9.346;2023-07-09T09:59:19;4.83;;;4.43;;
1613;SDS011;800;48.824;9.346;2023-07-09T10:01:47;6.70;;;4.30;;
1613;SDS011;800;48.824;9.346;2023-07-09T10:04:21;4.40;;;4.00;;
1613;SDS011;800;48.824;9.346;2023-07-09T10:06:49;4.37;;;3.97;;
1613;SDS011;800;48.824;9.346;2023-07-09T10:17:22;5.33;;;4.50;;
1613;SDS011;800;48.824;9.346;2023-07-09T10:19:56;8.27;;;4.50;;
1613;SDS011;800;48.824;9.346;2023-07-09T10:22:24;4.53;;;3.43;;
1613;SDS011;800;48.824;9.346;2023-07-09T10:25:02;6.10;;;4.63;;
1613;SDS011;800;48.824;9.346;2023-07-09T10:28:17;4.73;;;4.20;;
1613;SDS011;800;48.824;9.346;2023-07-09T10:31:15;12.17;;;3.93;;
1613;SDS011;800;48.824;9.346;2023-07-09T10:39:47;5.00;;;4.60;;
1613;SDS011;800;48.824;9.346;2023-07-09T10:42:21;4.00;;;3.70;;
1613;SDS011;800;48.824;9.346;2023-07-09T10:44:58;4.40;;;4.00;;
1613;SDS011;800;48.824;9.346;2023-07-09T10:47:35;4.20;;;3.80;;
1613;SDS011;800;48.824;9.346;2023-07-09T10:50:10;4.53;;;3.87;;
1613;SDS011;800;48.824;9.346;2023-07-09T10:52:42;7.90;;;4.23;;
1613;SDS011;800;48.824;9.346;2023-07-09T10:57:52;4.23;;;3.83;;
1613;SDS011;800;48.824;9.346;2023-07-09T11:00:29;4.70;;;4.23;;
1613;SDS011;800;48.824;9.346;2023-07-09T11:03:02;4.37;;;3.80;;
1613;SDS011;800;48.824;9.346;2023-07-09T11:05:33;4.33;;;3.93;;
1613;SDS011;800;48.824;9.346;2023-07-09T11:08:04;5.00;;;4.30;;
1613;SDS011;800;48.824;9.346;2023-07-09T11:13:28;7.15;;;5.38;;
1613;SDS011;800;48.824;9.346;2023-07-09T11:16:02;4.63;;;4.23;;
1613;SDS011;800;48.824;9.346;2023-07-09T11:18:33;5.53;;;4.30;;
1613;SDS011;800;48.824;9.346;2023-07-09T11:21:07;4.95;;;4.38;;
1613;SDS011;800;48.824;9.346;2023-07-09T11:23:48;4.63;;;4.32;;
1613;SDS011;800;48.824;9.346;2023-07-09T11:26:29;4.97;;;4.47;;
1613;SDS011;800;48.824;9.346;2023-07-09T11:31:34;5.22;;;4.72;;
1613;SDS011;800;48.824;9.346;2023-07-09T11:36:32;5.50;;;4.35;;
1613;SDS011;800;48.824;9.346;2023-07-09T11:38:59;6.97;;;5.38;;
1613;SDS011;800;48.824;9.346;2023-07-09T11:41:39;8.02;;;4.80;;
1613;SDS011;800;48.824;9.346;2023-07-09T11:44:20;5.07;;;4.68;;
1613;SDS011;800;48.824;9.346;2023-07-09T11:49:58;7.10;;;5.43;;
1613;SDS011;800;48.824;9.346;2023-07-09T11:52:27;5.28;;;4.82;;
1613;SDS011;800;48.824;9.346;2023-07-09T11:54:54;5.20;;;4.53;;
1613;SDS011;800;48.824;9.346;2023-07-09T11:57:20;6.10;;;5.50;;
1613;SDS011;800;48.824;9.346;2023-07-09T11:59:46;6.60;;;5.22;;
1613;SDS011;800;48.824;9.346;2023-07-09T12:02:16;5.63;;;5.20;;
1613;SDS011;800;48.824;9.346;2023-07-09T12:04:50;8.07;;;5.40;;
1613;SDS011;800;48.824;9.346;2023-07-09T12:07:17;4.68;;;4.25;;
1613;SDS011;800;48.824;9.346;2023-07-09T12:09:47;5.32;;;4.82;;
1613;SDS011;800;48.824;9.346;2023-07-09T12:12:23;5.63;;;5.13;;
1613;SDS011;800;48.824;9.346;2023-07-09T12:14:50;5.50;;;4.45;;
1613;SDS011;800;48.824;9.346;2023-07-09T12:17:15;5.47;;;4.70;;
1613;SDS011;800;48.824;9.346;2023-07-09T12:19:41;5.13;;;4.63;;
1613;SDS011;800;48.824;9.346;2023-07-09T12:22:10;7.38;;;5.82;;
1613;SDS011;800;48.824;9.346;2023-07-09T12:24:44;6.47;;;5.70;;
1613;SDS011;800;48.824;9.346;2023-07-09T12:29:51;5.93;;;5.32;;
1613;SDS011;800;48.824;9.346;2023-07-09T12:32:19;7.07;;;6.38;;
1613;SDS011;800;48.824;9.346;2023-07-09T12:34:50;7.38;;;6.75;;
1613;SDS011;800;48.824;9.346;2023-07-09T12:37:17;10.93;;;5.65;;
1613;SDS011;800;48.824;9.346;2023-07-09T12:39:45;6.32;;;5.47;;
1613;SDS011;800;48.824;9.346;2023-07-09T12:42:15;7.50;;;5.05;;
1613;SDS011;800;48.824;9.346;2023-07-09T12:44:57;5.70;;;5.13;;
1613;SDS011;800;48.824;9.346;2023-07-09T12:47:24;7.38;;;5.50;;
1613;SDS011;800;48.824;9.346;2023-07-09T12:49:50;8.63;;;5.70;;
1613;SDS011;800;48.824;9.346;2023-07-09T12:52:20;8.25;;;5.95;;
1613;SDS011;800;48.824;9.346;2023-07-09T12:57:23;7.57;;;5.85;;
1613;SDS011;800;48.824;9.346;2023-07-09T12:59:49;6.50;;;5.90;;
1613;SDS011;800;48.824;9.346;2023-07-09T13:02:17;7.22;;;5.65;;
1613;SDS011;800;48.824;9.346;2023-07-09T13:04:48;6.68;;;5.55;;
1613;SDS011;800;48.824;9.346;2023-07-09T13:09:50;5.68;;;5.18;;
1613;SDS011;800;48.824;9.346;2023-07-09T13:12:17;5.28;;;4.70;;
1613;SDS011;800;48.824;9.346;2023-07-09T13:14:46;6.05;;;5.45;;
1613;SDS011;800;48.824;9.346;2023-07-09T13:17:17;5.53;;;4.97;;
1613;SDS011;800;48.824;9.346;2023-07-09T13:19:43;6.43;;;5.72;;
1613;SDS011;800;48.824;9.346;2023-07-09T13:22:10;7.53;;;5.95;;
1613;SDS011;800;48.824;9.346;2023-07-09T13:24:39;6.55;;;6.00;;
1613;SDS011;800;48.824;9.346;2023-07-09T13:27:05;7.43;;;4.85;;
1613;SDS011;800;48.824;9.346;2023-07-09T13:29:33;6.72;;;5.05;;
1613;SDS011;800;48.824;9.346;2023-07-09T13:31:59;6.13;;;5.20;;
1613;SDS011;800;48.824;9.346;2023-07-09T13:34:28;6.50;;;4.72;;
1613;SDS011;800;48.824;9.346;2023-07-09T13:36:58;7.10;;;5.10;;
1613;SDS011;800;48.824;9.346;2023-07-09T13:39:24;5.85;;;4.82;;
1613;SDS011;800;48.824;9.346;2023-07-09T13:41:50;6.97;;;5.35;;
1613;SDS011;800;48.824;9.346;2023-07-09T13:44:21;5.90;;;4.75;;
1613;SDS011;800;48.824;9.346;2023-07-09T13:46:52;4.80;;;4.30;;
1613;SDS011;800;48.824;9.346;2023-07-09T13:49:19;4.82;;;4.35;;
1613;SDS011;800;48.824;9.346;2023-07-09T13:51:47;5.95;;;5.32;;
1613;SDS011;800;48.824;9.346;2023-07-09T13:54:36;6.00;;;5.40;;
1613;SDS011;800;48.824;9.346;2023-07-09T13:57:03;5.80;;;5.13;;
1613;SDS011;800;48.824;9.346;2023-07-09T13:59:30;5.28;;;4.63;;
1613;SDS011;800;48.824;9.346;2023-07-09T14:01:56;5.47;;;4.93;;
1613;SDS011;800;48.824;9.346;2023-07-09T14:04:24;5.50;;;4.43;;
1613;SDS011;800;48.824;9.346;2023-07-09T14:06:52;5.90;;;5.40;;
1613;SDS011;800;48.824;9.346;2023-07-09T14:09:17;8.63;;;5.43;;
1613;SDS011;800;48.824;9.346;2023-07-09T14:11:44;6.15;;;5.55;;
1613;SDS011;800;48.824;9.346;2023-07-09T14:14:15;6.97;;;4.38;;
1613;SDS011;800;48.824;9.346;2023-07-09T14:16:42;5.78;;;5.18;;
1613;SDS011;800;48.824;9.346;2023-07-09T14:19:19;6.00;;;4.90;;
1613;SDS011;800;48.824;9.346;2023-07-09T14:21:46;6.30;;;3.92;;
1613;SDS011;800;48.824;9.346;2023-07-09T14:24:20;5.30;;;4.35;;
1613;SDS011;800;48.824;9.346;2023-07-09T14:26:47;6.22;;;5.57;;
1613;SDS011;800;48.824;9.346;2023-07-09T14:29:13;5.63;;;4.30;;
1613;SDS011;800;48.824;9.346;2023-07-09T14:31:39;5.13;;;4.03;;
1613;SDS011;800;48.824;9.346;2023-07-09T14:36:53;4.13;;;3.72;;
1613;SDS011;800;48.824;9.346;2023-07-09T14:39:19;4.22;;;3.78;;
1613;SDS011;800;48.824;9.346;2023-07-09T14:41:46;4.15;;;3.78;;
1613;SDS011;800;48.824;9.346;2023-07-09T14:44:19;5.05;;;3.72;;
1613;SDS011;800;48.824;9.346;2023-07-09T14:46:47;4.65;;;4.28;;
1613;SDS011;800;48.824;9.346;2023-07-09T14:49:13;4.38;;;3.97;;
1613;SDS011;800;48.824;9.346;2023-07-09T14:51:39;4.93;;;3.90;;
1613;SDS011;800;48.824;9.346;2023-07-09T14:54:48;5.20;;;4.13;;
1613;SDS011;800;48.824;9.346;2023-07-09T14:56:55;4.95;;;4.45;;
1613;SDS011;800;48.824;9.346;2023-07-09T14:59:22;4.22;;;3.75;;
1613;SDS011;800;48.824;9.346;2023-07-09T15:01:49;7.80;;;4.50;;
1613;SDS011;800;48.824;9.346;2023-07-09T15:04:22;4.22;;;3.90;;
1613;SDS011;800;48.824;9.346;2023-07-09T15:06:52;4.95;;;4.43;;
1613;SDS011;800;48.824;9.346;2023-07-09T15:09:19;6.68;;;4.72;;
1613;SDS011;800;48.824;9.346;2023-07-09T15:11:48;5.10;;;4.28;;
1613;SDS011;800;48.824;9.346;2023-07-09T15:14:16;4.95;;;4.47;;
1613;SDS011;800;48.824;9.346;2023-07-09T15:16:41;4.95;;;4.53;;
1613;SDS011;800;48.824;9.346;2023-07-09T15:19:08;5.03;;;3.95;;
1613;SDS011;800;48.824;9.346;2023-07-09T15:21:37;5.03;;;4.63;;
1613;SDS011;800;48.824;9.346;2023-07-09T15:24:03;5.10;;;4.32;;
1613;SDS011;800;48.824;9.346;2023-07-09T15:26:30;5.55;;;5.05;;
1613;SDS011;800;48.824;9.346;2023-07-09T15:28:57;5.35;;;4.95;;
1613;SDS011;800;48.824;9.346;2023-07-09T15:31:22;6.68;;;5.05;;
1613;SDS011;800;48.824;9.346;2023-07-09T15:33:48;7.50;;;4.60;;
1613;SDS011;800;48.824;9.346;2023-07-09T15:36:14;4.88;;;4.47;;
1613;SDS011;800;48.824;9.346;2023-07-09T15:38:39;5.47;;;4.97;;
1613;SDS011;800;48.824;9.346;2023-07-09T15:41:10;4.68;;;4.28;;
1613;SDS011;800;48.824;9.346;2023-07-09T15:43:37;5.53;;;5.13;;
1613;SDS011;800;48.824;9.346;2023-07-09T15:46:03;5.32;;;4.82;;
1613;SDS011;800;48.824;9.346;2023-07-09T15:48:35;7.38;;;5.40;;
1613;SDS011;800;48.824;9.346;2023-07-09T15:51:03;6.60;;;4.93;;
1613;SDS011;800;48.824;9.346;2023-07-09T15:53:29;6.85;;;5.97;;
1613;SDS011;800;48.824;9.346;2023-07-09T15:56:00;4.90;;;4.50;;
1613;SDS011;800;48.824;9.346;2023-07-09T15:58:37;5.60;;;5.07;;
1613;SDS011;800;48.824;9.346;2023-07-09T16:01:07;4.95;;;4.38;;
1613;SDS011;800;48.824;9.346;2023-07-09T16:03:35;4.65;;;4.25;;
1613;SDS011;800;48.824;9.346;2023-07-09T16:06:01;6.32;;;4.07;;
1613;SDS011;800;48.824;9.346;2023-07-09T16:08:27;4.75;;;4.35;;
1613;SDS011;800;48.824;9.346;2023-07-09T16:10:52;4.85;;;4.45;;
1613;SDS011;800;48.824;9.346;2023-07-09T16:13:20;5.90;;;4.50;;
1613;SDS011;800;48.824;9.346;2023-07-09T16:15:47;5.30;;;4.90;;
1613;SDS011;800;48.824;9.346;2023-07-09T16:18:14;4.80;;;4.37;;
1613;SDS011;800;48.824;9.346;2023-07-09T16:20:40;5.38;;;4.85;;
1613;SDS011;800;48.824;9.346;2023-07-09T16:23:14;5.75;;;5.07;;